Braeside, Canada
Current Conditions -  °F | °C
As of 12:00 PM on Saturday 25 Oct 2014 (Local Time) from CYOW Reporting Station
Broken Clouds Broken Clouds  
Wind Chill: 55°   Ceiling: 3500
Heat Index: 55°   Visibility: 12mi
Dew Point: 46°   Wind: 14mph
Humidity: 72%   Direction: 200°SSW
Pressure: 29.59"   Gusts: NA
Location:  45.47°N, 76.4°W
Report Text: CYOW 251600Z 20012KT 12SM BKN035 BKN080 13/08 A2959 RMK SC5AC2 PRESFR SLP023 DENSITY ALT 500FT
Loading
Personal Weather Stations






























Interactive Weather Map
Tropical Storm Tracking
New forecast layout! Learn more

10-Day Weather Forecast

Advertisements
Track Severe Weather on mobile